sensor_id;sensor_type;location;lat;lon;timestamp;temperature;humidity
75387;DHT22;63966;47.914;22.266;2024-02-04T00:01:55;5.55;90.51
75387;DHT22;63966;47.914;22.266;2024-02-04T00:04:58;5.37;91.30
75387;DHT22;63966;47.914;22.266;2024-02-04T00:08:02;5.48;90.93
75387;DHT22;63966;47.914;22.266;2024-02-04T00:11:05;5.73;89.61
75387;DHT22;63966;47.914;22.266;2024-02-04T00:14:10;5.62;90.24
75387;DHT22;63966;47.914;22.266;2024-02-04T00:17:14;5.82;89.08
75387;DHT22;63966;47.914;22.266;2024-02-04T00:20:18;5.47;90.42
75387;DHT22;63966;47.914;22.266;2024-02-04T00:23:21;5.54;90.35
75387;DHT22;63966;47.914;22.266;2024-02-04T00:26:25;5.23;91.05
75387;DHT22;63966;47.914;22.266;2024-02-04T00:29:28;5.40;90.52
75387;DHT22;63966;47.914;22.266;2024-02-04T00:32:31;5.38;91.34
75387;DHT22;63966;47.914;22.266;2024-02-04T00:35:35;5.41;90.83
75387;DHT22;63966;47.914;22.266;2024-02-04T00:38:38;5.31;91.24
75387;DHT22;63966;47.914;22.266;2024-02-04T00:41:42;5.48;90.85
75387;DHT22;63966;47.914;22.266;2024-02-04T00:44:45;5.73;89.95
75387;DHT22;63966;47.914;22.266;2024-02-04T00:47:48;5.85;89.16
75387;DHT22;63966;47.914;22.266;2024-02-04T00:50:52;5.76;88.98
75387;DHT22;63966;47.914;22.266;2024-02-04T00:53:55;5.68;89.15
75387;DHT22;63966;47.914;22.266;2024-02-04T00:56:59;5.38;90.39
75387;DHT22;63966;47.914;22.266;2024-02-04T01:00:04;5.41;90.57
75387;DHT22;63966;47.914;22.266;2024-02-04T01:03:08;5.63;89.48
75387;DHT22;63966;47.914;22.266;2024-02-04T01:06:12;5.71;89.38
75387;DHT22;63966;47.914;22.266;2024-02-04T01:09:15;5.54;90.42
75387;DHT22;63966;47.914;22.266;2024-02-04T01:12:19;5.44;90.76
75387;DHT22;63966;47.914;22.266;2024-02-04T01:15:22;5.71;89.77
75387;DHT22;63966;47.914;22.266;2024-02-04T01:18:26;5.52;90.06
75387;DHT22;63966;47.914;22.266;2024-02-04T01:21:29;5.47;90.36
75387;DHT22;63966;47.914;22.266;2024-02-04T01:24:33;5.28;90.63
75387;DHT22;63966;47.914;22.266;2024-02-04T01:27:36;5.31;91.02
75387;DHT22;63966;47.914;22.266;2024-02-04T01:30:39;5.33;91.05
75387;DHT22;63966;47.914;22.266;2024-02-04T01:33:43;5.27;90.92
75387;DHT22;63966;47.914;22.266;2024-02-04T01:36:46;5.35;90.81
75387;DHT22;63966;47.914;22.266;2024-02-04T01:39:50;5.34;90.32
75387;DHT22;63966;47.914;22.266;2024-02-04T01:42:53;5.24;90.67
75387;DHT22;63966;47.914;22.266;2024-02-04T01:45:57;5.19;91.13
75387;DHT22;63966;47.914;22.266;2024-02-04T01:49:01;5.07;91.15
75387;DHT22;63966;47.914;22.266;2024-02-04T01:52:06;4.97;91.08
75387;DHT22;63966;47.914;22.266;2024-02-04T01:55:11;4.89;91.70
75387;DHT22;63966;47.914;22.266;2024-02-04T01:58:15;4.86;91.74
75387;DHT22;63966;47.914;22.266;2024-02-04T02:01:18;4.68;93.19
75387;DHT22;63966;47.914;22.266;2024-02-04T02:04:22;4.62;93.60
75387;DHT22;63966;47.914;22.266;2024-02-04T02:07:26;4.69;93.35
75387;DHT22;63966;47.914;22.266;2024-02-04T02:10:30;4.64;93.90
75387;DHT22;63966;47.914;22.266;2024-02-04T02:13:34;4.76;93.68
75387;DHT22;63966;47.914;22.266;2024-02-04T02:16:39;4.80;93.16
75387;DHT22;63966;47.914;22.266;2024-02-04T02:23:14;4.99;92.81
75387;DHT22;63966;47.914;22.266;2024-02-04T02:26:22;4.80;92.87
75387;DHT22;63966;47.914;22.266;2024-02-04T02:29:26;4.79;93.19
75387;DHT22;63966;47.914;22.266;2024-02-04T02:32:29;5.04;92.38
75387;DHT22;63966;47.914;22.266;2024-02-04T02:35:34;4.87;92.11
75387;DHT22;63966;47.914;22.266;2024-02-04T02:39:12;4.72;93.05
75387;DHT22;63966;47.914;22.266;2024-02-04T02:42:17;4.52;93.39
75387;DHT22;63966;47.914;22.266;2024-02-04T02:45:23;4.45;93.79
75387;DHT22;63966;47.914;22.266;2024-02-04T02:48:29;4.37;93.66
75387;DHT22;63966;47.914;22.266;2024-02-04T02:51:32;4.55;93.04
75387;DHT22;63966;47.914;22.266;2024-02-04T02:54:36;4.38;93.71
75387;DHT22;63966;47.914;22.266;2024-02-04T02:57:39;4.18;94.47
75387;DHT22;63966;47.914;22.266;2024-02-04T03:00:43;4.16;94.65
75387;DHT22;63966;47.914;22.266;2024-02-04T03:03:48;4.01;94.75
75387;DHT22;63966;47.914;22.266;2024-02-04T03:06:52;3.91;95.45
75387;DHT22;63966;47.914;22.266;2024-02-04T03:09:56;3.86;95.90
75387;DHT22;63966;47.914;22.266;2024-02-04T03:12:59;3.72;95.78
75387;DHT22;63966;47.914;22.266;2024-02-04T03:16:04;3.73;95.83
75387;DHT22;63966;47.914;22.266;2024-02-04T03:19:07;3.65;95.97
75387;DHT22;63966;47.914;22.266;2024-02-04T03:22:12;3.75;95.61
75387;DHT22;63966;47.914;22.266;2024-02-04T03:25:15;3.65;96.17
75387;DHT22;63966;47.914;22.266;2024-02-04T03:28:19;3.59;96.29
75387;DHT22;63966;47.914;22.266;2024-02-04T03:31:23;3.62;96.29
75387;DHT22;63966;47.914;22.266;2024-02-04T03:34:27;3.63;96.22
75387;DHT22;63966;47.914;22.266;2024-02-04T03:37:31;3.52;96.12
75387;DHT22;63966;47.914;22.266;2024-02-04T03:40:34;3.56;96.02
75387;DHT22;63966;47.914;22.266;2024-02-04T03:43:38;3.56;96.02
75387;DHT22;63966;47.914;22.266;2024-02-04T03:46:41;3.55;95.81
75387;DHT22;63966;47.914;22.266;2024-02-04T03:49:45;3.52;96.01
75387;DHT22;63966;47.914;22.266;2024-02-04T03:52:51;3.43;96.18
75387;DHT22;63966;47.914;22.266;2024-02-04T03:55:55;3.36;96.23
75387;DHT22;63966;47.914;22.266;2024-02-04T03:58:58;3.38;96.36
75387;DHT22;63966;47.914;22.266;2024-02-04T04:02:02;3.35;95.73
75387;DHT22;63966;47.914;22.266;2024-02-04T04:05:06;3.22;95.92
75387;DHT22;63966;47.914;22.266;2024-02-04T04:08:10;3.52;94.98
75387;DHT22;63966;47.914;22.266;2024-02-04T04:11:13;3.39;95.19
75387;DHT22;63966;47.914;22.266;2024-02-04T04:14:17;3.25;96.28
75387;DHT22;63966;47.914;22.266;2024-02-04T04:17:20;3.59;96.05
75387;DHT22;63966;47.914;22.266;2024-02-04T04:20:23;3.51;95.41
75387;DHT22;63966;47.914;22.266;2024-02-04T04:23:27;3.70;95.87
75387;DHT22;63966;47.914;22.266;2024-02-04T04:26:30;3.48;95.52
75387;DHT22;63966;47.914;22.266;2024-02-04T04:29:34;3.46;95.87
75387;DHT22;63966;47.914;22.266;2024-02-04T04:32:38;3.41;95.93
75387;DHT22;63966;47.914;22.266;2024-02-04T04:35:41;3.49;95.96
75387;DHT22;63966;47.914;22.266;2024-02-04T04:38:45;3.62;95.47
75387;DHT22;63966;47.914;22.266;2024-02-04T04:41:48;3.80;95.27
75387;DHT22;63966;47.914;22.266;2024-02-04T04:44:52;3.79;94.95
75387;DHT22;63966;47.914;22.266;2024-02-04T04:47:55;3.75;94.93
75387;DHT22;63966;47.914;22.266;2024-02-04T04:50:59;3.98;94.53
75387;DHT22;63966;47.914;22.266;2024-02-04T04:54:02;3.72;94.78
75387;DHT22;63966;47.914;22.266;2024-02-04T04:57:05;3.87;94.14
75387;DHT22;63966;47.914;22.266;2024-02-04T05:00:09;4.03;93.62
75387;DHT22;63966;47.914;22.266;2024-02-04T05:03:14;3.90;94.37
75387;DHT22;63966;47.914;22.266;2024-02-04T05:06:17;4.00;94.87
75387;DHT22;63966;47.914;22.266;2024-02-04T05:09:21;3.87;94.28
75387;DHT22;63966;47.914;22.266;2024-02-04T05:12:24;3.87;94.45
75387;DHT22;63966;47.914;22.266;2024-02-04T05:15:27;4.11;93.35
75387;DHT22;63966;47.914;22.266;2024-02-04T05:18:33;4.01;93.89
75387;DHT22;63966;47.914;22.266;2024-02-04T05:21:39;3.90;94.48
75387;DHT22;63966;47.914;22.266;2024-02-04T05:24:43;3.94;94.46
75387;DHT22;63966;47.914;22.266;2024-02-04T05:27:47;4.00;94.51
75387;DHT22;63966;47.914;22.266;2024-02-04T05:30:50;4.24;93.80
75387;DHT22;63966;47.914;22.266;2024-02-04T05:33:55;4.20;93.35
75387;DHT22;63966;47.914;22.266;2024-02-04T05:36:59;4.20;92.33
75387;DHT22;63966;47.914;22.266;2024-02-04T05:40:03;3.97;93.55
75387;DHT22;63966;47.914;22.266;2024-02-04T05:43:07;4.20;93.09
75387;DHT22;63966;47.914;22.266;2024-02-04T05:46:15;3.75;93.32
75387;DHT22;63966;47.914;22.266;2024-02-04T05:49:19;3.70;94.16
75387;DHT22;63966;47.914;22.266;2024-02-04T05:52:22;3.73;94.79
75387;DHT22;63966;47.914;22.266;2024-02-04T05:55:25;3.73;94.45
75387;DHT22;63966;47.914;22.266;2024-02-04T05:58:29;3.73;94.59
75387;DHT22;63966;47.914;22.266;2024-02-04T06:01:33;3.83;94.47
75387;DHT22;63966;47.914;22.266;2024-02-04T06:04:37;3.87;94.38
75387;DHT22;63966;47.914;22.266;2024-02-04T06:07:43;3.96;94.07
75387;DHT22;63966;47.914;22.266;2024-02-04T06:10:47;4.10;93.09
75387;DHT22;63966;47.914;22.266;2024-02-04T06:13:50;3.86;93.95
75387;DHT22;63966;47.914;22.266;2024-02-04T06:16:56;3.90;94.01
75387;DHT22;63966;47.914;22.266;2024-02-04T06:20:00;3.96;93.80
75387;DHT22;63966;47.914;22.266;2024-02-04T06:23:04;3.80;93.99
75387;DHT22;63966;47.914;22.266;2024-02-04T06:26:07;3.86;94.38
75387;DHT22;63966;47.914;22.266;2024-02-04T06:29:11;4.21;92.63
75387;DHT22;63966;47.914;22.266;2024-02-04T06:32:14;4.30;92.96
75387;DHT22;63966;47.914;22.266;2024-02-04T06:35:18;4.25;92.41
75387;DHT22;63966;47.914;22.266;2024-02-04T06:38:21;4.41;91.89
75387;DHT22;63966;47.914;22.266;2024-02-04T06:41:24;4.40;91.79
75387;DHT22;63966;47.914;22.266;2024-02-04T06:44:28;4.30;92.08
75387;DHT22;63966;47.914;22.266;2024-02-04T06:47:31;4.30;92.16
75387;DHT22;63966;47.914;22.266;2024-02-04T06:50:35;4.38;91.54
75387;DHT22;63966;47.914;22.266;2024-02-04T06:53:38;4.62;90.95
75387;DHT22;63966;47.914;22.266;2024-02-04T06:56:42;4.69;90.38
75387;DHT22;63966;47.914;22.266;2024-02-04T06:59:45;4.46;90.92
75387;DHT22;63966;47.914;22.266;2024-02-04T07:02:49;4.21;91.97
75387;DHT22;63966;47.914;22.266;2024-02-04T07:05:57;4.28;91.31
75387;DHT22;63966;47.914;22.266;2024-02-04T07:09:01;4.48;91.36
75387;DHT22;63966;47.914;22.266;2024-02-04T07:12:05;5.00;90.04
75387;DHT22;63966;47.914;22.266;2024-02-04T07:15:08;5.23;88.83
75387;DHT22;63966;47.914;22.266;2024-02-04T07:18:12;7.13;83.61
75387;DHT22;63966;47.914;22.266;2024-02-04T07:21:15;10.41;72.92
75387;DHT22;63966;47.914;22.266;2024-02-04T07:24:19;12.41;65.18
75387;DHT22;63966;47.914;22.266;2024-02-04T07:27:22;13.16;62.52
75387;DHT22;63966;47.914;22.266;2024-02-04T07:30:25;13.40;60.68
75387;DHT22;63966;47.914;22.266;2024-02-04T07:33:29;13.30;61.47
75387;DHT22;63966;47.914;22.266;2024-02-04T07:36:35;13.74;60.51
75387;DHT22;63966;47.914;22.266;2024-02-04T07:39:39;14.13;58.98
75387;DHT22;63966;47.914;22.266;2024-02-04T07:42:42;14.50;58.44
75387;DHT22;63966;47.914;22.266;2024-02-04T07:45:46;14.67;58.06
75387;DHT22;63966;47.914;22.266;2024-02-04T07:48:49;14.33;59.35
75387;DHT22;63966;47.914;22.266;2024-02-04T07:51:53;13.54;60.76
75387;DHT22;63966;47.914;22.266;2024-02-04T07:54:56;13.17;61.65
75387;DHT22;63966;47.914;22.266;2024-02-04T07:58:00;13.17;62.51
75387;DHT22;63966;47.914;22.266;2024-02-04T08:01:03;12.55;64.97
75387;DHT22;63966;47.914;22.266;2024-02-04T08:04:07;12.48;64.66
75387;DHT22;63966;47.914;22.266;2024-02-04T08:07:14;12.40;65.21
75387;DHT22;63966;47.914;22.266;2024-02-04T08:10:17;11.61;69.98
75387;DHT22;63966;47.914;22.266;2024-02-04T08:13:21;10.63;71.45
75387;DHT22;63966;47.914;22.266;2024-02-04T08:16:24;10.52;72.32
75387;DHT22;63966;47.914;22.266;2024-02-04T08:19:28;10.15;73.44
75387;DHT22;63966;47.914;22.266;2024-02-04T08:22:31;9.64;76.73
75387;DHT22;63966;47.914;22.266;2024-02-04T08:25:35;9.49;76.73
75387;DHT22;63966;47.914;22.266;2024-02-04T08:28:39;9.59;76.48
75387;DHT22;63966;47.914;22.266;2024-02-04T08:31:43;9.47;77.82
75387;DHT22;63966;47.914;22.266;2024-02-04T08:34:46;9.49;76.73
75387;DHT22;63966;47.914;22.266;2024-02-04T08:37:50;9.50;76.73
75387;DHT22;63966;47.914;22.266;2024-02-04T08:40:53;9.50;77.20
75387;DHT22;63966;47.914;22.266;2024-02-04T08:43:56;9.47;77.27
75387;DHT22;63966;47.914;22.266;2024-02-04T08:47:03;9.56;77.26
75387;DHT22;63966;47.914;22.266;2024-02-04T08:50:07;9.76;76.53
75387;DHT22;63966;47.914;22.266;2024-02-04T08:53:11;9.90;76.51
75387;DHT22;63966;47.914;22.266;2024-02-04T08:56:14;10.22;75.15
75387;DHT22;63966;47.914;22.266;2024-02-04T08:59:18;10.43;75.75
75387;DHT22;63966;47.914;22.266;2024-02-04T09:02:21;10.31;75.28
75387;DHT22;63966;47.914;22.266;2024-02-04T09:05:24;10.53;74.20
75387;DHT22;63966;47.914;22.266;2024-02-04T09:08:28;10.60;73.72
75387;DHT22;63966;47.914;22.266;2024-02-04T09:11:32;10.52;73.98
75387;DHT22;63966;47.914;22.266;2024-02-04T09:14:36;10.49;73.60
75387;DHT22;63966;47.914;22.266;2024-02-04T09:17:39;10.21;74.51
75387;DHT22;63966;47.914;22.266;2024-02-04T09:20:43;10.41;74.47
75387;DHT22;63966;47.914;22.266;2024-02-04T09:23:47;10.41;73.41
75387;DHT22;63966;47.914;22.266;2024-02-04T09:26:50;10.45;73.69
75387;DHT22;63966;47.914;22.266;2024-02-04T09:29:54;10.28;74.37
75387;DHT22;63966;47.914;22.266;2024-02-04T09:32:58;10.46;73.88
75387;DHT22;63966;47.914;22.266;2024-02-04T09:36:02;10.62;73.53
75387;DHT22;63966;47.914;22.266;2024-02-04T09:39:06;10.69;73.22
75387;DHT22;63966;47.914;22.266;2024-02-04T09:42:11;10.63;73.22
75387;DHT22;63966;47.914;22.266;2024-02-04T09:45:20;10.69;72.85
75387;DHT22;63966;47.914;22.266;2024-02-04T09:48:24;10.66;72.63
75387;DHT22;63966;47.914;22.266;2024-02-04T09:51:29;10.55;72.99
75387;DHT22;63966;47.914;22.266;2024-02-04T09:54:44;10.89;72.49
75387;DHT22;63966;47.914;22.266;2024-02-04T09:57:48;10.84;72.40
75387;DHT22;63966;47.914;22.266;2024-02-04T10:00:52;10.94;72.61
75387;DHT22;63966;47.914;22.266;2024-02-04T10:03:56;10.87;71.91
75387;DHT22;63966;47.914;22.266;2024-02-04T10:07:01;10.85;72.81
75387;DHT22;63966;47.914;22.266;2024-02-04T10:10:06;11.20;72.60
75387;DHT22;63966;47.914;22.266;2024-02-04T10:13:11;11.41;71.72
75387;DHT22;63966;47.914;22.266;2024-02-04T10:16:16;11.20;71.74
75387;DHT22;63966;47.914;22.266;2024-02-04T10:19:19;11.38;71.65
75387;DHT22;63966;47.914;22.266;2024-02-04T10:22:25;11.59;70.93
75387;DHT22;63966;47.914;22.266;2024-02-04T10:25:29;12.00;70.54
75387;DHT22;63966;47.914;22.266;2024-02-04T10:28:33;12.20;68.35
75387;DHT22;63966;47.914;22.266;2024-02-04T10:31:37;12.00;68.37
75387;DHT22;63966;47.914;22.266;2024-02-04T10:34:40;11.93;68.90
75387;DHT22;63966;47.914;22.266;2024-02-04T10:37:46;12.01;67.77
75387;DHT22;63966;47.914;22.266;2024-02-04T10:40:53;11.70;68.91
75387;DHT22;63966;47.914;22.266;2024-02-04T10:43:58;11.86;67.64
75387;DHT22;63966;47.914;22.266;2024-02-04T10:47:07;11.55;69.07
75387;DHT22;63966;47.914;22.266;2024-02-04T10:50:14;11.32;70.21
75387;DHT22;63966;47.914;22.266;2024-02-04T10:53:20;11.28;70.63
75387;DHT22;63966;47.914;22.266;2024-02-04T10:59:34;11.46;69.39
75387;DHT22;63966;47.914;22.266;2024-02-04T11:02:41;11.39;69.51
75387;DHT22;63966;47.914;22.266;2024-02-04T11:05:47;11.68;68.80
75387;DHT22;63966;47.914;22.266;2024-02-04T11:08:52;11.79;68.56
75387;DHT22;63966;47.914;22.266;2024-02-04T11:11:59;11.89;68.35
75387;DHT22;63966;47.914;22.266;2024-02-04T11:15:07;12.06;67.46
75387;DHT22;63966;47.914;22.266;2024-02-04T11:18:28;12.08;68.07
75387;DHT22;63966;47.914;22.266;2024-02-04T11:25:42;12.24;67.55
75387;DHT22;63966;47.914;22.266;2024-02-04T11:28:48;11.80;69.02
75387;DHT22;63966;47.914;22.266;2024-02-04T11:31:52;12.00;68.52
75387;DHT22;63966;47.914;22.266;2024-02-04T11:34:59;12.33;67.52
75387;DHT22;63966;47.914;22.266;2024-02-04T11:38:06;12.20;67.56
75387;DHT22;63966;47.914;22.266;2024-02-04T11:41:20;12.03;67.96
75387;DHT22;63966;47.914;22.266;2024-02-04T11:44:25;12.14;67.81
75387;DHT22;63966;47.914;22.266;2024-02-04T11:47:29;12.40;67.87
75387;DHT22;63966;47.914;22.266;2024-02-04T11:50:33;12.38;67.86
75387;DHT22;63966;47.914;22.266;2024-02-04T11:53:37;12.13;69.36
75387;DHT22;63966;47.914;22.266;2024-02-04T11:56:42;12.27;69.28
75387;DHT22;63966;47.914;22.266;2024-02-04T11:59:47;12.46;68.76
75387;DHT22;63966;47.914;22.266;2024-02-04T12:03:08;12.31;68.66
75387;DHT22;63966;47.914;22.266;2024-02-04T12:06:12;12.35;68.52
75387;DHT22;63966;47.914;22.266;2024-02-04T12:09:18;12.14;69.11
75387;DHT22;63966;47.914;22.266;2024-02-04T12:12:23;12.07;67.98
75387;DHT22;63966;47.914;22.266;2024-02-04T12:15:29;12.10;67.67
75387;DHT22;63966;47.914;22.266;2024-02-04T12:18:33;12.14;67.22
75387;DHT22;63966;47.914;22.266;2024-02-04T12:21:37;12.17;66.62
75387;DHT22;63966;47.914;22.266;2024-02-04T12:24:41;12.04;68.62
75387;DHT22;63966;47.914;22.266;2024-02-04T12:27:45;12.28;68.54
75387;DHT22;63966;47.914;22.266;2024-02-04T12:30:54;12.17;68.20
75387;DHT22;63966;47.914;22.266;2024-02-04T12:33:59;12.18;68.52
75387;DHT22;63966;47.914;22.266;2024-02-04T12:37:05;12.18;68.46
75387;DHT22;63966;47.914;22.266;2024-02-04T12:40:09;11.89;69.46
75387;DHT22;63966;47.914;22.266;2024-02-04T12:43:15;11.72;69.61
75387;DHT22;63966;47.914;22.266;2024-02-04T12:46:19;11.61;70.45
75387;DHT22;63966;47.914;22.266;2024-02-04T12:49:25;12.01;69.25
75387;DHT22;63966;47.914;22.266;2024-02-04T12:52:29;12.33;68.25
75387;DHT22;63966;47.914;22.266;2024-02-04T12:55:37;12.44;67.64
75387;DHT22;63966;47.914;22.266;2024-02-04T12:58:44;12.62;66.72
75387;DHT22;63966;47.914;22.266;2024-02-04T13:01:58;12.40;67.02
75387;DHT22;63966;47.914;22.266;2024-02-04T13:05:04;12.38;67.53
75387;DHT22;63966;47.914;22.266;2024-02-04T13:08:10;11.98;68.57
75387;DHT22;63966;47.914;22.266;2024-02-04T13:11:20;12.20;68.32
75387;DHT22;63966;47.914;22.266;2024-02-04T13:14:23;12.18;68.42
75387;DHT22;63966;47.914;22.266;2024-02-04T13:17:29;12.24;68.25
75387;DHT22;63966;47.914;22.266;2024-02-04T13:20:33;12.16;68.99
75387;DHT22;63966;47.914;22.266;2024-02-04T13:23:36;12.16;68.82
75387;DHT22;63966;47.914;22.266;2024-02-04T13:26:40;12.28;68.40
75387;DHT22;63966;47.914;22.266;2024-02-04T13:29:44;12.18;68.77
75387;DHT22;63966;47.914;22.266;2024-02-04T13:32:48;12.03;69.51
75387;DHT22;63966;47.914;22.266;2024-02-04T13:35:51;12.01;69.36
75387;DHT22;63966;47.914;22.266;2024-02-04T13:38:55;12.03;69.60
75387;DHT22;63966;47.914;22.266;2024-02-04T13:41:58;12.23;69.07
75387;DHT22;63966;47.914;22.266;2024-02-04T13:45:02;12.17;69.11
75387;DHT22;63966;47.914;22.266;2024-02-04T13:48:06;11.97;69.46
75387;DHT22;63966;47.914;22.266;2024-02-04T13:51:10;11.79;69.97
75387;DHT22;63966;47.914;22.266;2024-02-04T13:54:13;11.83;69.56
75387;DHT22;63966;47.914;22.266;2024-02-04T13:57:21;11.85;69.46
75387;DHT22;63966;47.914;22.266;2024-02-04T14:00:24;11.87;69.73
75387;DHT22;63966;47.914;22.266;2024-02-04T14:03:28;11.76;69.83
75387;DHT22;63966;47.914;22.266;2024-02-04T14:06:31;11.79;69.94
75387;DHT22;63966;47.914;22.266;2024-02-04T14:09:35;11.73;70.12
75387;DHT22;63966;47.914;22.266;2024-02-04T14:12:38;12.12;68.66
75387;DHT22;63966;47.914;22.266;2024-02-04T14:15:43;12.07;69.17
75387;DHT22;63966;47.914;22.266;2024-02-04T14:18:46;11.86;69.75
75387;DHT22;63966;47.914;22.266;2024-02-04T14:21:50;11.57;71.02
75387;DHT22;63966;47.914;22.266;2024-02-04T14:24:53;11.38;71.85
75387;DHT22;63966;47.914;22.266;2024-02-04T14:27:57;11.42;71.58
75387;DHT22;63966;47.914;22.266;2024-02-04T14:31:01;11.42;71.34
75387;DHT22;63966;47.914;22.266;2024-02-04T14:34:05;11.51;70.79
75387;DHT22;63966;47.914;22.266;2024-02-04T14:37:09;11.36;71.04
75387;DHT22;63966;47.914;22.266;2024-02-04T14:40:17;11.25;70.76
75387;DHT22;63966;47.914;22.266;2024-02-04T14:43:20;10.77;72.12
75387;DHT22;63966;47.914;22.266;2024-02-04T14:46:26;10.63;71.97
75387;DHT22;63966;47.914;22.266;2024-02-04T14:49:30;10.64;71.50
75387;DHT22;63966;47.914;22.266;2024-02-04T14:52:34;10.74;70.83
75387;DHT22;63966;47.914;22.266;2024-02-04T14:55:38;10.59;71.42
75387;DHT22;63966;47.914;22.266;2024-02-04T14:58:42;10.43;71.93
75387;DHT22;63966;47.914;22.266;2024-02-04T15:01:46;10.45;71.62
75387;DHT22;63966;47.914;22.266;2024-02-04T15:04:49;10.38;71.64
75387;DHT22;63966;47.914;22.266;2024-02-04T15:07:53;10.36;71.61
75387;DHT22;63966;47.914;22.266;2024-02-04T15:10:57;10.34;71.64
75387;DHT22;63966;47.914;22.266;2024-02-04T15:14:01;10.24;71.78
75387;DHT22;63966;47.914;22.266;2024-02-04T15:17:05;10.24;72.26
75387;DHT22;63966;47.914;22.266;2024-02-04T15:20:09;10.15;72.25
75387;DHT22;63966;47.914;22.266;2024-02-04T15:23:20;10.08;72.44
75387;DHT22;63966;47.914;22.266;2024-02-04T15:26:24;9.78;73.39
75387;DHT22;63966;47.914;22.266;2024-02-04T15:29:32;9.61;73.85
75387;DHT22;63966;47.914;22.266;2024-02-04T15:32:37;9.44;74.30
75387;DHT22;63966;47.914;22.266;2024-02-04T15:35:41;9.70;73.73
75387;DHT22;63966;47.914;22.266;2024-02-04T15:38:44;9.50;74.45
75387;DHT22;63966;47.914;22.266;2024-02-04T15:41:48;9.50;74.77
75387;DHT22;63966;47.914;22.266;2024-02-04T15:44:51;9.39;74.86
75387;DHT22;63966;47.914;22.266;2024-02-04T15:47:55;9.20;75.88
75387;DHT22;63966;47.914;22.266;2024-02-04T15:51:01;9.16;76.24
75387;DHT22;63966;47.914;22.266;2024-02-04T15:54:04;9.12;76.43
75387;DHT22;63966;47.914;22.266;2024-02-04T15:57:12;9.09;76.69
75387;DHT22;63966;47.914;22.266;2024-02-04T16:00:20;9.02;77.47
75387;DHT22;63966;47.914;22.266;2024-02-04T16:03:30;8.98;77.70
75387;DHT22;63966;47.914;22.266;2024-02-04T16:06:35;8.93;77.98
75387;DHT22;63966;47.914;22.266;2024-02-04T16:09:40;8.87;78.12
75387;DHT22;63966;47.914;22.266;2024-02-04T16:12:54;8.85;78.31
75387;DHT22;63966;47.914;22.266;2024-02-04T16:16:02;8.74;78.32
75387;DHT22;63966;47.914;22.266;2024-02-04T16:19:06;8.71;78.74
75387;DHT22;63966;47.914;22.266;2024-02-04T16:22:13;8.63;78.96
75387;DHT22;63966;47.914;22.266;2024-02-04T16:25:18;8.65;78.77
75387;DHT22;63966;47.914;22.266;2024-02-04T16:28:22;8.60;78.88
75387;DHT22;63966;47.914;22.266;2024-02-04T16:31:26;8.64;78.70
75387;DHT22;63966;47.914;22.266;2024-02-04T16:34:30;8.47;78.98
75387;DHT22;63966;47.914;22.266;2024-02-04T16:37:37;8.34;79.72
75387;DHT22;63966;47.914;22.266;2024-02-04T16:40:40;8.37;79.44
75387;DHT22;63966;47.914;22.266;2024-02-04T16:43:44;8.36;79.62
75387;DHT22;63966;47.914;22.266;2024-02-04T16:46:48;8.40;79.81
75387;DHT22;63966;47.914;22.266;2024-02-04T16:49:52;8.43;79.21
75387;DHT22;63966;47.914;22.266;2024-02-04T16:52:55;8.37;79.58
75387;DHT22;63966;47.914;22.266;2024-02-04T16:55:59;8.53;79.26
75387;DHT22;63966;47.914;22.266;2024-02-04T16:59:02;8.28;80.17
75387;DHT22;63966;47.914;22.266;2024-02-04T17:02:06;8.34;80.07
75387;DHT22;63966;47.914;22.266;2024-02-04T17:05:11;8.29;80.39
75387;DHT22;63966;47.914;22.266;2024-02-04T17:08:15;8.32;80.10
75387;DHT22;63966;47.914;22.266;2024-02-04T17:11:19;8.40;79.95
75387;DHT22;63966;47.914;22.266;2024-02-04T17:14:24;8.39;80.23
75387;DHT22;63966;47.914;22.266;2024-02-04T17:17:30;8.30;80.49
75387;DHT22;63966;47.914;22.266;2024-02-04T17:20:46;8.50;79.91
75387;DHT22;63966;47.914;22.266;2024-02-04T17:23:54;8.53;79.75
75387;DHT22;63966;47.914;22.266;2024-02-04T17:27:05;8.63;79.31
75387;DHT22;63966;47.914;22.266;2024-02-04T17:30:10;8.61;79.21
75387;DHT22;63966;47.914;22.266;2024-02-04T17:33:14;8.70;78.92
75387;DHT22;63966;47.914;22.266;2024-02-04T17:36:19;8.59;79.45
75387;DHT22;63966;47.914;22.266;2024-02-04T17:39:23;8.74;78.98
75387;DHT22;63966;47.914;22.266;2024-02-04T17:42:30;8.75;78.91
75387;DHT22;63966;47.914;22.266;2024-02-04T17:45:34;8.72;79.15
75387;DHT22;63966;47.914;22.266;2024-02-04T17:48:38;8.88;78.90
75387;DHT22;63966;47.914;22.266;2024-02-04T17:51:44;8.77;79.08
75387;DHT22;63966;47.914;22.266;2024-02-04T17:54:52;8.67;79.60
75387;DHT22;63966;47.914;22.266;2024-02-04T17:57:57;8.77;79.28
75387;DHT22;63966;47.914;22.266;2024-02-04T18:01:04;8.87;79.24
75387;DHT22;63966;47.914;22.266;2024-02-04T18:04:08;8.98;78.71
75387;DHT22;63966;47.914;22.266;2024-02-04T18:07:12;8.92;78.74
75387;DHT22;63966;47.914;22.266;2024-02-04T18:10:16;8.81;79.16
75387;DHT22;63966;47.914;22.266;2024-02-04T18:13:20;8.74;79.24
75387;DHT22;63966;47.914;22.266;2024-02-04T18:16:24;8.81;79.42
75387;DHT22;63966;47.914;22.266;2024-02-04T18:19:28;8.75;79.65
75387;DHT22;63966;47.914;22.266;2024-02-04T18:22:32;8.70;79.94
75387;DHT22;63966;47.914;22.266;2024-02-04T18:25:35;8.72;80.03
75387;DHT22;63966;47.914;22.266;2024-02-04T18:28:39;8.72;80.04
75387;DHT22;63966;47.914;22.266;2024-02-04T18:31:43;8.85;79.65
75387;DHT22;63966;47.914;22.266;2024-02-04T18:34:50;8.82;79.73
75387;DHT22;63966;47.914;22.266;2024-02-04T18:37:59;8.78;80.03
75387;DHT22;63966;47.914;22.266;2024-02-04T18:41:07;8.70;80.30
75387;DHT22;63966;47.914;22.266;2024-02-04T18:44:12;8.61;80.61
75387;DHT22;63966;47.914;22.266;2024-02-04T18:47:18;8.81;80.15
75387;DHT22;63966;47.914;22.266;2024-02-04T18:50:22;8.63;80.70
75387;DHT22;63966;47.914;22.266;2024-02-04T18:53:27;8.51;81.09
75387;DHT22;63966;47.914;22.266;2024-02-04T18:56:30;8.77;80.64
75387;DHT22;63966;47.914;22.266;2024-02-04T18:59:37;8.88;80.22
75387;DHT22;63966;47.914;22.266;2024-02-04T19:02:40;8.81;80.46
75387;DHT22;63966;47.914;22.266;2024-02-04T19:05:44;8.81;80.50
75387;DHT22;63966;47.914;22.266;2024-02-04T19:08:47;8.74;80.89
75387;DHT22;63966;47.914;22.266;2024-02-04T19:11:51;8.82;80.65
75387;DHT22;63966;47.914;22.266;2024-02-04T19:14:55;8.81;80.91
75387;DHT22;63966;47.914;22.266;2024-02-04T19:17:58;8.89;80.62
75387;DHT22;63966;47.914;22.266;2024-02-04T19:21:02;8.81;80.92
75387;DHT22;63966;47.914;22.266;2024-02-04T19:24:06;8.84;80.70
75387;DHT22;63966;47.914;22.266;2024-02-04T19:27:12;8.74;80.96
75387;DHT22;63966;47.914;22.266;2024-02-04T19:30:16;8.81;80.75